DLH222 OBBI-LOWW
Flight info
| Callsign | DLH222 |
|---|---|
| Flight time | N/A |
| Altitude | 38000 |
| Route | BHR M444 DAVUS L602 RALKA G795 TASMI/N0422F220 L602 ALPET/N0476F380 L718 EMIDO/N0475F400 L718 KABAN UL718 INB UL746 ODERO T86 MATEL T746 ARGES DCT ENIMA DCT OLMIP DCT ERGUZ DCT NATEX NATEX2W |
| Aircraft | A333/H-SDE3GHIJ2J3J5M1RVWXY/LB2D1 |
Departure
| Time | 2026-05-06 10:05 |
|---|---|
| Airport | Bahrain International Airport (OBBI) |
Arrival
| Time | N/A |
|---|---|
| Airport | Vienna International Airport (LOWW) |
| Time | Latitude | Longitude | Altitude | Speed | Heading |
|---|---|---|---|---|---|
| 2026-05-06 09:38 | 26.26820 | 50.63091 | 18 ft | 0 kts | 211° |
| 2026-05-06 09:55 | 26.26834 | 50.63100 | 18 ft | 3 kts | 211° |
| 2026-05-06 09:55 | 26.26850 | 50.63111 | 20 ft | 3 kts | 211° |
| 2026-05-06 09:56 | 26.26855 | 50.63114 | 20 ft | 0 kts | 204° |
| 2026-05-06 09:56 | 26.26855 | 50.63115 | 20 ft | 2 kts | 204° |
| 2026-05-06 09:56 | 26.26874 | 50.63121 | 20 ft | 3 kts | 165° |
| 2026-05-06 09:56 | 26.26892 | 50.63110 | 21 ft | 3 kts | 119° |
| 2026-05-06 09:57 | 26.26897 | 50.63098 | 21 ft | 0 kts | 110° |
| 2026-05-06 09:58 | 26.26896 | 50.63100 | 21 ft | 1 kts | 110° |
| 2026-05-06 09:58 | 26.26893 | 50.63109 | 21 ft | 2 kts | 110° |
| 2026-05-06 09:58 | 26.26885 | 50.63133 | 21 ft | 5 kts | 110° |
| 2026-05-06 09:59 | 26.26867 | 50.63177 | 18 ft | 7 kts | 120° |
| 2026-05-06 09:59 | 26.26838 | 50.63228 | 18 ft | 9 kts | 122° |
| 2026-05-06 09:59 | 26.26799 | 50.63295 | 18 ft | 11 kts | 123° |
| 2026-05-06 09:59 | 26.26754 | 50.63372 | 18 ft | 13 kts | 123° |
| 2026-05-06 10:00 | 26.26702 | 50.63460 | 18 ft | 14 kts | 123° |
| 2026-05-06 10:00 | 26.26646 | 50.63556 | 18 ft | 15 kts | 123° |
| 2026-05-06 10:00 | 26.26587 | 50.63656 | 19 ft | 16 kts | 123° |
| 2026-05-06 10:00 | 26.26527 | 50.63760 | 18 ft | 16 kts | 122° |
| 2026-05-06 10:01 | 26.26467 | 50.63864 | 18 ft | 16 kts | 122° |
| 2026-05-06 10:01 | 26.26426 | 50.63964 | 18 ft | 14 kts | 98° |
| 2026-05-06 10:01 | 26.26447 | 50.64060 | 17 ft | 12 kts | 90° |
| 2026-05-06 10:01 | 26.26430 | 50.64142 | 16 ft | 9 kts | 122° |
| 2026-05-06 10:02 | 26.26391 | 50.64208 | 17 ft | 12 kts | 123° |
| 2026-05-06 10:02 | 26.26340 | 50.64295 | 16 ft | 15 kts | 123° |
| 2026-05-06 10:02 | 26.26275 | 50.64406 | 15 ft | 19 kts | 123° |
| 2026-05-06 10:02 | 26.26201 | 50.64533 | 16 ft | 20 kts | 122° |
| 2026-05-06 10:03 | 26.26133 | 50.64659 | 16 ft | 19 kts | 121° |
| 2026-05-06 10:03 | 26.26062 | 50.64782 | 17 ft | 19 kts | 123° |
| 2026-05-06 10:03 | 26.26023 | 50.64909 | 18 ft | 17 kts | 81° |
| 2026-05-06 10:03 | 26.26097 | 50.64995 | 20 ft | 15 kts | 17° |
| 2026-05-06 10:04 | 26.26170 | 50.64942 | 19 ft | 15 kts | 304° |
| 2026-05-06 10:04 | 26.26306 | 50.64714 | 17 ft | 63 kts | 302° |
| 2026-05-06 10:04 | 26.26646 | 50.64131 | 19 ft | 116 kts | 303° |
| 2026-05-06 10:04 | 26.27167 | 50.63217 | 20 ft | 162 kts | 303° |
| 2026-05-06 10:05 | 26.27808 | 50.62118 | 512 ft | 174 kts | 304° |
| 2026-05-06 10:05 | 26.28489 | 50.60976 | 1273 ft | 177 kts | 308° |
| 2026-05-06 10:05 | 26.29270 | 50.59935 | 2006 ft | 174 kts | 320° |
| 2026-05-06 10:05 | 26.30284 | 50.59254 | 2603 ft | 168 kts | 341° |
| 2026-05-06 10:06 | 26.31463 | 50.58950 | 2891 ft | 183 kts | 346° |
| 2026-05-06 10:06 | 26.32744 | 50.58572 | 3154 ft | 198 kts | 343° |
| 2026-05-06 10:06 | 26.34119 | 50.58118 | 3467 ft | 214 kts | 342° |
| 2026-05-06 10:06 | 26.35599 | 50.57598 | 3755 ft | 233 kts | 342° |
| 2026-05-06 10:07 | 26.37220 | 50.57060 | 4063 ft | 252 kts | 343° |
| 2026-05-06 10:07 | 26.38961 | 50.56546 | 4413 ft | 266 kts | 346° |
| 2026-05-06 10:07 | 26.40810 | 50.56116 | 4802 ft | 277 kts | 347° |
| 2026-05-06 10:07 | 26.42730 | 50.55695 | 5202 ft | 286 kts | 347° |
| 2026-05-06 10:08 | 26.44703 | 50.55247 | 5683 ft | 290 kts | 346° |
| 2026-05-06 10:08 | 26.46676 | 50.54763 | 6313 ft | 291 kts | 344° |
| 2026-05-06 10:08 | 26.48645 | 50.54234 | 6895 ft | 292 kts | 343° |
| 2026-05-06 10:08 | 26.50621 | 50.53672 | 7482 ft | 294 kts | 343° |
| 2026-05-06 10:09 | 26.52609 | 50.53099 | 8070 ft | 296 kts | 343° |
| 2026-05-06 10:09 | 26.54616 | 50.52532 | 8706 ft | 299 kts | 343° |
| 2026-05-06 10:09 | 26.56642 | 50.51973 | 9344 ft | 301 kts | 344° |
| 2026-05-06 10:09 | 26.58688 | 50.51423 | 9985 ft | 304 kts | 344° |
| 2026-05-06 10:10 | 26.60756 | 50.50885 | 10592 ft | 306 kts | 345° |
| 2026-05-06 10:10 | 26.62846 | 50.50363 | 11191 ft | 310 kts | 345° |
| 2026-05-06 10:10 | 26.64983 | 50.49851 | 11668 ft | 318 kts | 346° |
| 2026-05-06 10:10 | 26.67183 | 50.49327 | 12096 ft | 328 kts | 345° |
| 2026-05-06 10:11 | 26.69394 | 50.48615 | 12560 ft | 334 kts | 334° |
| 2026-05-06 10:11 | 26.71393 | 50.47263 | 13017 ft | 339 kts | 321° |
| 2026-05-06 10:11 | 26.73222 | 50.45555 | 13527 ft | 345 kts | 317° |
| 2026-05-06 10:11 | 26.75010 | 50.43731 | 13999 ft | 351 kts | 315° |
| 2026-05-06 10:12 | 26.76772 | 50.41810 | 14471 ft | 356 kts | 313° |
| 2026-05-06 10:12 | 26.78538 | 50.39840 | 14947 ft | 361 kts | 313° |
| 2026-05-06 10:12 | 26.80348 | 50.37864 | 15427 ft | 366 kts | 314° |
| 2026-05-06 10:12 | 26.82196 | 50.35867 | 15875 ft | 372 kts | 313° |
| 2026-05-06 10:13 | 26.84039 | 50.33858 | 16322 ft | 378 kts | 313° |
| 2026-05-06 10:13 | 26.85929 | 50.31791 | 16777 ft | 382 kts | 313° |
| 2026-05-06 10:13 | 26.87860 | 50.29716 | 17243 ft | 387 kts | 314° |
| 2026-05-06 10:13 | 26.89830 | 50.27642 | 17714 ft | 391 kts | 314° |
| 2026-05-06 10:14 | 26.91838 | 50.25572 | 18205 ft | 394 kts | 314° |
| 2026-05-06 10:14 | 26.93881 | 50.23509 | 18632 ft | 397 kts | 314° |
| 2026-05-06 10:14 | 26.95925 | 50.21422 | 19061 ft | 399 kts | 314° |
| 2026-05-06 10:14 | 26.97956 | 50.19296 | 19493 ft | 400 kts | 313° |
| 2026-05-06 10:15 | 26.99965 | 50.17131 | 19942 ft | 402 kts | 312° |
| 2026-05-06 10:15 | 27.01953 | 50.14924 | 20403 ft | 403 kts | 311° |
| 2026-05-06 10:15 | 27.03943 | 50.12698 | 20848 ft | 405 kts | 313° |
| 2026-05-06 10:15 | 27.06081 | 50.10619 | 21314 ft | 409 kts | 317° |
| 2026-05-06 10:16 | 27.08338 | 50.08669 | 21776 ft | 411 kts | 319° |
| 2026-05-06 10:16 | 27.10638 | 50.06733 | 22118 ft | 415 kts | 319° |
| 2026-05-06 10:16 | 27.12949 | 50.04760 | 22425 ft | 420 kts | 318° |
| 2026-05-06 10:16 | 27.15273 | 50.02733 | 22658 ft | 426 kts | 317° |
| 2026-05-06 10:17 | 27.17606 | 50.00649 | 22898 ft | 431 kts | 317° |
| 2026-05-06 10:17 | 27.19959 | 49.98522 | 23154 ft | 437 kts | 317° |
| 2026-05-06 10:17 | 27.22352 | 49.96383 | 23401 ft | 442 kts | 317° |
| 2026-05-06 10:17 | 27.24787 | 49.94234 | 23615 ft | 448 kts | 318° |
| 2026-05-06 10:18 | 27.27262 | 49.92078 | 23828 ft | 453 kts | 318° |
| 2026-05-06 10:18 | 27.29760 | 49.89935 | 24229 ft | 451 kts | 318° |
| 2026-05-06 10:18 | 27.32257 | 49.87797 | 24654 ft | 450 kts | 318° |
| 2026-05-06 10:18 | 27.34743 | 49.85653 | 25004 ft | 451 kts | 317° |
| 2026-05-06 10:19 | 27.37228 | 49.83489 | 25327 ft | 452 kts | 317° |
| 2026-05-06 10:19 | 27.39713 | 49.81309 | 25641 ft | 454 kts | 317° |
| 2026-05-06 10:19 | 27.42202 | 49.79114 | 25956 ft | 455 kts | 316° |
| 2026-05-06 10:19 | 27.44663 | 49.76939 | 26286 ft | 457 kts | 316° |
| 2026-05-06 10:20 | 27.47195 | 49.74698 | 26644 ft | 457 kts | 316° |
| 2026-05-06 10:20 | 27.49699 | 49.72480 | 26936 ft | 459 kts | 315° |
| 2026-05-06 10:20 | 27.52214 | 49.70250 | 27225 ft | 461 kts | 315° |
| 2026-05-06 10:20 | 27.54703 | 49.68044 | 27531 ft | 463 kts | 315° |
| 2026-05-06 10:21 | 27.57236 | 49.65797 | 27813 ft | 464 kts | 315° |
| 2026-05-06 10:21 | 27.59779 | 49.63542 | 28101 ft | 466 kts | 315° |
| 2026-05-06 10:21 | 27.62367 | 49.61245 | 28408 ft | 468 kts | 315° |
| 2026-05-06 10:21 | 27.64891 | 49.59005 | 28719 ft | 469 kts | 315° |
| 2026-05-06 10:22 | 27.67456 | 49.56725 | 28999 ft | 470 kts | 314° |
| 2026-05-06 10:22 | 27.70029 | 49.54439 | 29255 ft | 472 kts | 314° |
| 2026-05-06 10:22 | 27.72610 | 49.52143 | 29599 ft | 472 kts | 314° |
| 2026-05-06 10:22 | 27.75183 | 49.49854 | 29989 ft | 470 kts | 314° |
| 2026-05-06 10:23 | 27.77748 | 49.47571 | 30317 ft | 469 kts | 314° |
| 2026-05-06 10:23 | 27.80307 | 49.45292 | 30652 ft | 468 kts | 313° |
| 2026-05-06 10:23 | 27.82856 | 49.43020 | 30981 ft | 466 kts | 313° |
| 2026-05-06 10:23 | 27.85398 | 49.40752 | 31286 ft | 465 kts | 313° |
| 2026-05-06 10:24 | 27.87937 | 49.38484 | 31569 ft | 465 kts | 313° |
| 2026-05-06 10:24 | 27.90464 | 49.36224 | 31883 ft | 464 kts | 313° |
| 2026-05-06 10:24 | 27.93013 | 49.33977 | 32196 ft | 466 kts | 315° |
| 2026-05-06 10:24 | 27.95765 | 49.31983 | 32491 ft | 475 kts | 322° |
| 2026-05-06 10:25 | 27.98745 | 49.30323 | 32857 ft | 479 kts | 325° |
| 2026-05-06 10:25 | 28.01783 | 49.28780 | 33199 ft | 479 kts | 326° |
| 2026-05-06 10:25 | 28.04849 | 49.27295 | 33491 ft | 479 kts | 327° |
| 2026-05-06 10:25 | 28.07925 | 49.25840 | 33778 ft | 479 kts | 327° |
| 2026-05-06 10:26 | 28.11002 | 49.24393 | 34025 ft | 479 kts | 327° |
| 2026-05-06 10:26 | 28.14077 | 49.22945 | 34262 ft | 478 kts | 327° |
| 2026-05-06 10:26 | 28.17140 | 49.21496 | 34544 ft | 476 kts | 326° |
| 2026-05-06 10:26 | 28.20190 | 49.20046 | 34827 ft | 474 kts | 326° |
| 2026-05-06 10:27 | 28.23229 | 49.18595 | 35053 ft | 473 kts | 326° |
| 2026-05-06 10:27 | 28.26259 | 49.17137 | 35278 ft | 473 kts | 326° |
| 2026-05-06 10:27 | 28.29280 | 49.15672 | 35496 ft | 472 kts | 326° |
| 2026-05-06 10:27 | 28.32297 | 49.14204 | 35707 ft | 471 kts | 326° |
| 2026-05-06 10:28 | 28.35306 | 49.12738 | 35943 ft | 471 kts | 325° |
| 2026-05-06 10:28 | 28.38284 | 49.11231 | 36167 ft | 464 kts | 321° |
| 2026-05-06 10:28 | 28.41057 | 49.09431 | 36357 ft | 455 kts | 316° |
| 2026-05-06 10:28 | 28.43687 | 49.07533 | 36563 ft | 453 kts | 315° |
| 2026-05-06 10:29 | 28.46315 | 49.05565 | 36733 ft | 452 kts | 315° |
| 2026-05-06 10:29 | 28.48918 | 49.03573 | 36942 ft | 451 kts | 314° |
| 2026-05-06 10:29 | 28.51509 | 49.01572 | 37126 ft | 450 kts | 314° |
| 2026-05-06 10:29 | 28.54092 | 48.99573 | 37347 ft | 449 kts | 314° |
| 2026-05-06 10:30 | 28.56673 | 48.97578 | 37541 ft | 448 kts | 314° |
| 2026-05-06 10:30 | 28.59252 | 48.95586 | 37717 ft | 448 kts | 314° |
| 2026-05-06 10:30 | 28.61831 | 48.93598 | 37874 ft | 448 kts | 314° |
| 2026-05-06 10:30 | 28.64416 | 48.91605 | 37895 ft | 449 kts | 314° |
| 2026-05-06 10:31 | 28.69579 | 48.87630 | 37902 ft | 447 kts | 314° |
| 2026-05-06 10:31 | 28.74734 | 48.83658 | 37895 ft | 447 kts | 314° |
| 2026-05-06 10:32 | 28.79016 | 48.80352 | 37895 ft | 447 kts | 314° |
| 2026-05-06 10:32 | 28.84212 | 48.76357 | 37893 ft | 448 kts | 314° |
| 2026-05-06 10:33 | 28.89351 | 48.72422 | 37889 ft | 448 kts | 314° |
| 2026-05-06 10:33 | 28.94531 | 48.68452 | 37890 ft | 449 kts | 314° |
| 2026-05-06 10:34 | 28.99710 | 48.64477 | 37887 ft | 448 kts | 314° |
| 2026-05-06 10:34 | 29.04890 | 48.60494 | 37888 ft | 449 kts | 314° |
| 2026-05-06 10:35 | 29.10075 | 48.56502 | 37907 ft | 449 kts | 314° |
| 2026-05-06 10:35 | 29.15259 | 48.52506 | 37893 ft | 449 kts | 314° |
| 2026-05-06 10:36 | 29.20438 | 48.48510 | 37892 ft | 449 kts | 314° |
| 2026-05-06 10:36 | 29.25619 | 48.44505 | 37892 ft | 449 kts | 314° |
| 2026-05-06 10:37 | 29.30803 | 48.40494 | 37893 ft | 450 kts | 314° |
| 2026-05-06 10:37 | 29.35993 | 48.36473 | 37900 ft | 451 kts | 314° |
| 2026-05-06 10:38 | 29.41185 | 48.32446 | 37891 ft | 450 kts | 314° |
| 2026-05-06 10:38 | 29.46481 | 48.28545 | 37893 ft | 456 kts | 317° |
| 2026-05-06 10:39 | 29.52003 | 48.24922 | 37893 ft | 458 kts | 319° |
| 2026-05-06 10:39 | 29.57527 | 48.21367 | 37895 ft | 458 kts | 319° |
| 2026-05-06 10:40 | 29.63071 | 48.17753 | 37894 ft | 458 kts | 319° |
| 2026-05-06 10:40 | 29.68603 | 48.14110 | 37894 ft | 458 kts | 318° |
| 2026-05-06 10:41 | 29.74127 | 48.10457 | 37887 ft | 458 kts | 318° |
| 2026-05-06 10:41 | 29.79642 | 48.06807 | 37888 ft | 457 kts | 318° |
| 2026-05-06 10:42 | 29.85157 | 48.03154 | 37901 ft | 457 kts | 318° |
| 2026-05-06 10:42 | 29.90669 | 47.99497 | 37903 ft | 457 kts | 318° |
| 2026-05-06 10:43 | 29.96181 | 47.95836 | 37903 ft | 457 kts | 318° |
| 2026-05-06 10:44 | 30.03754 | 47.89603 | 37900 ft | 431 kts | 303° |
| 2026-05-06 10:44 | 30.07789 | 47.84529 | 37909 ft | 427 kts | 300° |
| 2026-05-06 10:45 | 30.11662 | 47.79335 | 37907 ft | 426 kts | 299° |
| 2026-05-06 10:45 | 30.15515 | 47.74126 | 37907 ft | 427 kts | 300° |
| 2026-05-06 10:46 | 30.19385 | 47.68923 | 37930 ft | 427 kts | 300° |
| 2026-05-06 10:46 | 30.23237 | 47.63763 | 37908 ft | 426 kts | 300° |
| 2026-05-06 10:47 | 30.27114 | 47.58569 | 37918 ft | 426 kts | 300° |
| 2026-05-06 10:47 | 30.30987 | 47.53370 | 37916 ft | 427 kts | 299° |
| 2026-05-06 10:48 | 30.34860 | 47.48165 | 37916 ft | 427 kts | 299° |
| 2026-05-06 10:48 | 30.38729 | 47.42957 | 37916 ft | 427 kts | 299° |
| 2026-05-06 10:49 | 30.42597 | 47.37742 | 37916 ft | 427 kts | 299° |
| 2026-05-06 10:49 | 30.46464 | 47.32523 | 37927 ft | 427 kts | 299° |
| 2026-05-06 10:50 | 30.50333 | 47.27295 | 37921 ft | 427 kts | 299° |
| 2026-05-06 10:50 | 30.54200 | 47.22062 | 37925 ft | 427 kts | 299° |
| 2026-05-06 10:51 | 30.58067 | 47.16824 | 37930 ft | 427 kts | 299° |
| 2026-05-06 10:51 | 30.61932 | 47.11582 | 37933 ft | 428 kts | 299° |
| 2026-05-06 10:52 | 30.65799 | 47.06330 | 37922 ft | 428 kts | 299° |
| 2026-05-06 10:52 | 30.69661 | 47.01079 | 37927 ft | 428 kts | 299° |
| 2026-05-06 10:53 | 30.73523 | 46.95821 | 37955 ft | 428 kts | 299° |
| 2026-05-06 10:53 | 30.77384 | 46.90556 | 37927 ft | 428 kts | 299° |
| 2026-05-06 10:54 | 30.81218 | 46.85321 | 37928 ft | 428 kts | 299° |
| 2026-05-06 10:54 | 30.85077 | 46.80046 | 37930 ft | 428 kts | 298° |
| 2026-05-06 10:55 | 30.88961 | 46.74730 | 37931 ft | 428 kts | 298° |
| 2026-05-06 10:55 | 30.92787 | 46.69484 | 37933 ft | 428 kts | 298° |
| 2026-05-06 10:56 | 30.96639 | 46.64196 | 37938 ft | 428 kts | 298° |
| 2026-05-06 10:56 | 31.00489 | 46.58905 | 37946 ft | 428 kts | 298° |
| 2026-05-06 10:57 | 31.04338 | 46.53606 | 37936 ft | 428 kts | 298° |
| 2026-05-06 10:57 | 31.08189 | 46.48297 | 37938 ft | 429 kts | 298° |
| 2026-05-06 10:58 | 31.12039 | 46.42984 | 37941 ft | 429 kts | 298° |
| 2026-05-06 10:58 | 31.15886 | 46.37667 | 37947 ft | 429 kts | 298° |
| 2026-05-06 10:59 | 31.19762 | 46.32366 | 37949 ft | 433 kts | 302° |
| 2026-05-06 10:59 | 31.24226 | 46.27499 | 37953 ft | 442 kts | 306° |
| 2026-05-06 11:00 | 31.28886 | 46.22787 | 37972 ft | 443 kts | 307° |
| 2026-05-06 11:00 | 31.33581 | 46.18106 | 37958 ft | 443 kts | 307° |
| 2026-05-06 11:01 | 31.38265 | 46.13416 | 37966 ft | 443 kts | 307° |
| 2026-05-06 11:01 | 31.42937 | 46.08714 | 37973 ft | 443 kts | 307° |
| 2026-05-06 11:02 | 31.47604 | 46.04003 | 37977 ft | 443 kts | 307° |
| 2026-05-06 11:02 | 31.52267 | 45.99289 | 37971 ft | 443 kts | 307° |
| 2026-05-06 11:03 | 31.56930 | 45.94568 | 37977 ft | 443 kts | 307° |
| 2026-05-06 11:03 | 31.61599 | 45.89836 | 37977 ft | 444 kts | 307° |
| 2026-05-06 11:04 | 31.66237 | 45.85130 | 37981 ft | 444 kts | 307° |
| 2026-05-06 11:04 | 31.70904 | 45.80388 | 37985 ft | 444 kts | 307° |
| 2026-05-06 11:05 | 31.75571 | 45.75639 | 37982 ft | 444 kts | 307° |
| 2026-05-06 11:05 | 31.80238 | 45.70884 | 37985 ft | 444 kts | 307° |
| 2026-05-06 11:06 | 31.84905 | 45.66122 | 37985 ft | 444 kts | 307° |
| 2026-05-06 11:06 | 31.89571 | 45.61354 | 37979 ft | 444 kts | 307° |
| 2026-05-06 11:07 | 31.94239 | 45.56577 | 37979 ft | 444 kts | 307° |
| 2026-05-06 11:07 | 31.98903 | 45.51797 | 37982 ft | 445 kts | 307° |
| 2026-05-06 11:08 | 32.03571 | 45.47007 | 37987 ft | 445 kts | 307° |
| 2026-05-06 11:08 | 32.08237 | 45.42213 | 38022 ft | 445 kts | 307° |
| 2026-05-06 11:09 | 32.12902 | 45.37413 | 37984 ft | 445 kts | 307° |
| 2026-05-06 11:09 | 32.17566 | 45.32605 | 37988 ft | 445 kts | 307° |
| 2026-05-06 11:10 | 32.22201 | 45.27822 | 38010 ft | 446 kts | 308° |
| 2026-05-06 11:10 | 32.26867 | 45.23000 | 37996 ft | 446 kts | 308° |
| 2026-05-06 11:11 | 32.31556 | 45.18147 | 37994 ft | 446 kts | 308° |
| 2026-05-06 11:11 | 32.36226 | 45.13308 | 38008 ft | 447 kts | 308° |
| 2026-05-06 11:12 | 32.40897 | 45.08460 | 38001 ft | 447 kts | 308° |
| 2026-05-06 11:12 | 32.45572 | 45.03602 | 37999 ft | 447 kts | 308° |
| 2026-05-06 11:13 | 32.50242 | 44.98741 | 38024 ft | 447 kts | 308° |
| 2026-05-06 11:13 | 32.54917 | 44.93868 | 38002 ft | 448 kts | 308° |
| 2026-05-06 11:14 | 32.59594 | 44.88986 | 38001 ft | 448 kts | 308° |
| 2026-05-06 11:14 | 32.64269 | 44.84100 | 37994 ft | 448 kts | 308° |
| 2026-05-06 11:15 | 32.68942 | 44.79208 | 37999 ft | 448 kts | 308° |
| 2026-05-06 11:15 | 32.73611 | 44.74314 | 37997 ft | 448 kts | 308° |
| 2026-05-06 11:16 | 32.78279 | 44.69412 | 38010 ft | 448 kts | 308° |
| 2026-05-06 11:16 | 32.82945 | 44.64507 | 38034 ft | 448 kts | 308° |
| 2026-05-06 11:17 | 32.87613 | 44.59591 | 38012 ft | 448 kts | 308° |
| 2026-05-06 11:17 | 32.92281 | 44.54667 | 38009 ft | 449 kts | 308° |
| 2026-05-06 11:18 | 32.96954 | 44.49733 | 38013 ft | 449 kts | 308° |
| 2026-05-06 11:18 | 33.01623 | 44.44795 | 38012 ft | 449 kts | 308° |
| 2026-05-06 11:19 | 33.06258 | 44.39886 | 38015 ft | 449 kts | 308° |
| 2026-05-06 11:19 | 33.10930 | 44.34930 | 38018 ft | 450 kts | 308° |
| 2026-05-06 11:20 | 33.15749 | 44.30115 | 38022 ft | 459 kts | 316° |
| 2026-05-06 11:20 | 33.18535 | 44.28169 | 38053 ft | 472 kts | 324° |
| 2026-05-06 11:20 | 33.21604 | 44.26656 | 38023 ft | 480 kts | 329° |
| 2026-05-06 11:21 | 33.28196 | 44.24712 | 38022 ft | 500 kts | 344° |
| 2026-05-06 11:21 | 33.35170 | 44.23969 | 38020 ft | 505 kts | 347° |
| 2026-05-06 11:22 | 33.41003 | 44.23514 | 38027 ft | 506 kts | 347° |
| 2026-05-06 11:22 | 33.48028 | 44.22957 | 38018 ft | 506 kts | 347° |
| 2026-05-06 11:23 | 33.55050 | 44.22356 | 38029 ft | 506 kts | 347° |
| 2026-05-06 11:23 | 33.62072 | 44.21732 | 38023 ft | 506 kts | 346° |
| 2026-05-06 11:24 | 33.69096 | 44.21102 | 38019 ft | 506 kts | 347° |
| 2026-05-06 11:24 | 33.76120 | 44.20473 | 38019 ft | 506 kts | 347° |
| 2026-05-06 11:25 | 33.83141 | 44.19844 | 38021 ft | 506 kts | 346° |
| 2026-05-06 11:25 | 33.90169 | 44.19214 | 38019 ft | 507 kts | 346° |
| 2026-05-06 11:26 | 33.97201 | 44.18583 | 38022 ft | 507 kts | 346° |
| 2026-05-06 11:26 | 34.04233 | 44.17950 | 38021 ft | 507 kts | 346° |
| 2026-05-06 11:27 | 34.11267 | 44.17316 | 38020 ft | 507 kts | 346° |
| 2026-05-06 11:27 | 34.18302 | 44.16682 | 38058 ft | 507 kts | 346° |
| 2026-05-06 11:28 | 34.25334 | 44.16047 | 38024 ft | 507 kts | 346° |
| 2026-05-06 11:28 | 34.32365 | 44.15410 | 38022 ft | 507 kts | 346° |
| 2026-05-06 11:29 | 34.39345 | 44.14777 | 38034 ft | 507 kts | 346° |
| 2026-05-06 11:29 | 34.46375 | 44.14125 | 38012 ft | 505 kts | 344° |
| 2026-05-06 11:29 | 34.49784 | 44.13402 | 38026 ft | 491 kts | 335° |
| 2026-05-06 11:30 | 34.52992 | 44.12134 | 38019 ft | 481 kts | 329° |
| 2026-05-06 11:30 | 34.59176 | 44.09109 | 38042 ft | 478 kts | 326° |
| 2026-05-06 11:31 | 34.65265 | 44.05886 | 38020 ft | 477 kts | 326° |
| 2026-05-06 11:31 | 34.71349 | 44.02644 | 38051 ft | 478 kts | 326° |
| 2026-05-06 11:32 | 34.77446 | 43.99421 | 38017 ft | 478 kts | 326° |
| 2026-05-06 11:32 | 34.83545 | 43.96209 | 38046 ft | 478 kts | 326° |
| 2026-05-06 11:33 | 34.89648 | 43.92995 | 38025 ft | 477 kts | 326° |
| 2026-05-06 11:33 | 34.95739 | 43.89781 | 38023 ft | 477 kts | 326° |
| 2026-05-06 11:34 | 35.01829 | 43.86560 | 38021 ft | 477 kts | 326° |
| 2026-05-06 11:34 | 35.07921 | 43.83332 | 38041 ft | 477 kts | 326° |
| 2026-05-06 11:35 | 35.14015 | 43.80098 | 38020 ft | 478 kts | 326° |
| 2026-05-06 11:35 | 35.20115 | 43.76856 | 38021 ft | 478 kts | 326° |
| 2026-05-06 11:36 | 35.26215 | 43.73610 | 38020 ft | 478 kts | 326° |
| 2026-05-06 11:36 | 35.32314 | 43.70361 | 38045 ft | 478 kts | 326° |
| 2026-05-06 11:37 | 35.38417 | 43.67112 | 38019 ft | 478 kts | 326° |
| 2026-05-06 11:37 | 35.44526 | 43.63857 | 38021 ft | 479 kts | 326° |
| 2026-05-06 11:38 | 35.50634 | 43.60596 | 38014 ft | 479 kts | 327° |
| 2026-05-06 11:38 | 35.56705 | 43.57349 | 38044 ft | 479 kts | 327° |
| 2026-05-06 11:39 | 35.62822 | 43.54072 | 38014 ft | 480 kts | 327° |
| 2026-05-06 11:39 | 35.68939 | 43.50789 | 38018 ft | 480 kts | 327° |
| 2026-05-06 11:40 | 35.75055 | 43.47501 | 38016 ft | 480 kts | 327° |
| 2026-05-06 11:40 | 35.81172 | 43.44208 | 38017 ft | 480 kts | 327° |
| 2026-05-06 11:41 | 35.87289 | 43.40909 | 38017 ft | 480 kts | 327° |
| 2026-05-06 11:41 | 35.93414 | 43.37598 | 38018 ft | 481 kts | 327° |
| 2026-05-06 11:42 | 35.99539 | 43.34284 | 38019 ft | 481 kts | 327° |
| 2026-05-06 11:42 | 36.05669 | 43.30961 | 38018 ft | 481 kts | 327° |
| 2026-05-06 11:43 | 36.11794 | 43.27629 | 38022 ft | 481 kts | 327° |
| 2026-05-06 11:43 | 36.17918 | 43.24267 | 38013 ft | 482 kts | 327° |
| 2026-05-06 11:44 | 36.27067 | 43.19226 | 38035 ft | 482 kts | 327° |
| 2026-05-06 11:44 | 36.33199 | 43.15842 | 38015 ft | 483 kts | 327° |
| 2026-05-06 11:45 | 36.39334 | 43.12453 | 38020 ft | 483 kts | 327° |
| 2026-05-06 11:45 | 36.45466 | 43.09060 | 38020 ft | 482 kts | 327° |
| 2026-05-06 11:46 | 36.51597 | 43.05661 | 38023 ft | 483 kts | 327° |
| 2026-05-06 11:46 | 36.57724 | 43.02258 | 38042 ft | 482 kts | 327° |
| 2026-05-06 11:47 | 36.63856 | 42.98847 | 38032 ft | 483 kts | 327° |
| 2026-05-06 11:47 | 36.69991 | 42.95427 | 38032 ft | 483 kts | 327° |
| 2026-05-06 11:48 | 36.76131 | 42.91999 | 38035 ft | 484 kts | 327° |
| 2026-05-06 11:48 | 36.82289 | 42.88587 | 38035 ft | 484 kts | 327° |
| 2026-05-06 11:49 | 36.88455 | 42.85193 | 38062 ft | 484 kts | 328° |
| 2026-05-06 11:49 | 36.94618 | 42.81795 | 38040 ft | 484 kts | 328° |
| 2026-05-06 11:50 | 37.00782 | 42.78386 | 38044 ft | 484 kts | 328° |
| 2026-05-06 11:50 | 37.06941 | 42.74970 | 38051 ft | 484 kts | 328° |
| 2026-05-06 11:51 | 37.13057 | 42.71573 | 38055 ft | 484 kts | 328° |
| 2026-05-06 11:51 | 37.19212 | 42.68150 | 38057 ft | 484 kts | 328° |
| 2026-05-06 11:52 | 37.24838 | 42.63862 | 38051 ft | 464 kts | 311° |
| 2026-05-06 11:52 | 37.29132 | 42.58028 | 38052 ft | 452 kts | 301° |
| 2026-05-06 11:53 | 37.32943 | 42.51778 | 38070 ft | 450 kts | 299° |
| 2026-05-06 11:53 | 37.36666 | 42.45453 | 38057 ft | 450 kts | 299° |
| 2026-05-06 11:54 | 37.40405 | 42.39129 | 38054 ft | 450 kts | 300° |
| 2026-05-06 11:54 | 37.44158 | 42.32822 | 38069 ft | 451 kts | 300° |
| 2026-05-06 11:55 | 37.47921 | 42.26505 | 38060 ft | 451 kts | 300° |
| 2026-05-06 11:55 | 37.51684 | 42.20179 | 38060 ft | 451 kts | 300° |
| 2026-05-06 11:56 | 37.55439 | 42.13846 | 38086 ft | 451 kts | 300° |
| 2026-05-06 11:56 | 37.59193 | 42.07506 | 38062 ft | 451 kts | 300° |
| 2026-05-06 11:57 | 37.62942 | 42.01164 | 38062 ft | 451 kts | 300° |
| 2026-05-06 11:57 | 37.66688 | 41.94813 | 38063 ft | 451 kts | 301° |
| 2026-05-06 11:58 | 37.70427 | 41.88467 | 38050 ft | 451 kts | 301° |
| 2026-05-06 11:58 | 37.74162 | 41.82111 | 38053 ft | 451 kts | 300° |
| 2026-05-06 11:59 | 37.77898 | 41.75742 | 38056 ft | 451 kts | 300° |
| 2026-05-06 11:59 | 37.81631 | 41.69372 | 38057 ft | 451 kts | 300° |
| 2026-05-06 12:00 | 37.85361 | 41.62994 | 38060 ft | 451 kts | 300° |
| 2026-05-06 12:00 | 37.89063 | 41.56651 | 38068 ft | 451 kts | 300° |
| 2026-05-06 12:01 | 37.92779 | 41.50273 | 38058 ft | 450 kts | 301° |
| 2026-05-06 12:01 | 37.96488 | 41.43892 | 38059 ft | 450 kts | 300° |
| 2026-05-06 12:02 | 38.00193 | 41.37506 | 38071 ft | 450 kts | 300° |
| 2026-05-06 12:02 | 38.03893 | 41.31117 | 38064 ft | 449 kts | 300° |
| 2026-05-06 12:03 | 38.07587 | 41.24727 | 38066 ft | 450 kts | 300° |
| 2026-05-06 12:03 | 38.11286 | 41.18313 | 38081 ft | 450 kts | 301° |
| 2026-05-06 12:04 | 38.14981 | 41.11897 | 38065 ft | 450 kts | 301° |
| 2026-05-06 12:04 | 38.18671 | 41.05481 | 38064 ft | 450 kts | 301° |
| 2026-05-06 12:05 | 38.22360 | 40.99054 | 38077 ft | 450 kts | 301° |
| 2026-05-06 12:05 | 38.26045 | 40.92621 | 38062 ft | 450 kts | 301° |
| 2026-05-06 12:06 | 38.29727 | 40.86177 | 38069 ft | 450 kts | 301° |
| 2026-05-06 12:06 | 38.33407 | 40.79726 | 38094 ft | 450 kts | 301° |
| 2026-05-06 12:07 | 38.37087 | 40.73259 | 38076 ft | 451 kts | 301° |
| 2026-05-06 12:07 | 38.40763 | 40.66788 | 38078 ft | 451 kts | 301° |
| 2026-05-06 12:08 | 38.44436 | 40.60309 | 38097 ft | 451 kts | 301° |
| 2026-05-06 12:08 | 38.48107 | 40.53818 | 38076 ft | 451 kts | 301° |
| 2026-05-06 12:09 | 38.51780 | 40.47314 | 38073 ft | 452 kts | 301° |
| 2026-05-06 12:09 | 38.55452 | 40.40799 | 38075 ft | 452 kts | 301° |
| 2026-05-06 12:10 | 38.59119 | 40.34274 | 38074 ft | 452 kts | 301° |
| 2026-05-06 12:10 | 38.62787 | 40.27731 | 38067 ft | 453 kts | 301° |
| 2026-05-06 12:11 | 38.65832 | 40.22292 | 38070 ft | 452 kts | 301° |
| 2026-05-06 12:11 | 38.69495 | 40.15745 | 38077 ft | 452 kts | 301° |
| 2026-05-06 12:12 | 38.73158 | 40.09186 | 38069 ft | 453 kts | 301° |
| 2026-05-06 12:12 | 38.76812 | 40.02625 | 38053 ft | 452 kts | 301° |
| 2026-05-06 12:13 | 38.80462 | 39.96058 | 38054 ft | 453 kts | 301° |
| 2026-05-06 12:13 | 38.84121 | 39.89461 | 38054 ft | 454 kts | 301° |
| 2026-05-06 12:14 | 38.87781 | 39.82851 | 38050 ft | 454 kts | 301° |
| 2026-05-06 12:14 | 38.91437 | 39.76237 | 38050 ft | 454 kts | 301° |
| 2026-05-06 12:15 | 38.95087 | 39.69616 | 38055 ft | 454 kts | 301° |
| 2026-05-06 12:15 | 38.98735 | 39.62988 | 38052 ft | 454 kts | 301° |
| 2026-05-06 12:16 | 39.02358 | 39.56395 | 38058 ft | 455 kts | 301° |
| 2026-05-06 12:16 | 39.06006 | 39.49742 | 38062 ft | 455 kts | 301° |
| 2026-05-06 12:17 | 39.09653 | 39.43077 | 38059 ft | 456 kts | 301° |
| 2026-05-06 12:17 | 39.13298 | 39.36404 | 38071 ft | 456 kts | 301° |
| 2026-05-06 12:18 | 39.16945 | 39.29705 | 38065 ft | 458 kts | 301° |
| 2026-05-06 12:18 | 39.20595 | 39.22981 | 38065 ft | 458 kts | 301° |
| 2026-05-06 12:19 | 39.24240 | 39.16256 | 38076 ft | 457 kts | 301° |
| 2026-05-06 12:19 | 39.27887 | 39.09513 | 38067 ft | 459 kts | 301° |
| 2026-05-06 12:20 | 39.31538 | 39.02749 | 38065 ft | 459 kts | 301° |
| 2026-05-06 12:20 | 39.35188 | 38.95974 | 38062 ft | 459 kts | 301° |
| 2026-05-06 12:21 | 39.38831 | 38.89194 | 38058 ft | 459 kts | 302° |
| 2026-05-06 12:21 | 39.42474 | 38.82403 | 38059 ft | 459 kts | 302° |
| 2026-05-06 12:22 | 39.46111 | 38.75607 | 38061 ft | 459 kts | 301° |
| 2026-05-06 12:22 | 39.49743 | 38.68805 | 38063 ft | 459 kts | 302° |
| 2026-05-06 12:23 | 39.53373 | 38.61995 | 38058 ft | 459 kts | 302° |
| 2026-05-06 12:23 | 39.57002 | 38.55170 | 38042 ft | 460 kts | 302° |
| 2026-05-06 12:24 | 39.60630 | 38.48331 | 38056 ft | 461 kts | 302° |
| 2026-05-06 12:24 | 39.64258 | 38.41480 | 38057 ft | 461 kts | 302° |
| 2026-05-06 12:25 | 39.67883 | 38.34619 | 38062 ft | 461 kts | 302° |
| 2026-05-06 12:25 | 39.71504 | 38.27749 | 38065 ft | 461 kts | 302° |
| 2026-05-06 12:26 | 39.75125 | 38.20865 | 38070 ft | 461 kts | 302° |
| 2026-05-06 12:26 | 39.78744 | 38.13973 | 38070 ft | 461 kts | 302° |
| 2026-05-06 12:27 | 39.82359 | 38.07073 | 38070 ft | 462 kts | 302° |
| 2026-05-06 12:27 | 39.85969 | 38.00168 | 38073 ft | 462 kts | 302° |
| 2026-05-06 12:28 | 39.89578 | 37.93253 | 38073 ft | 462 kts | 302° |
| 2026-05-06 12:28 | 39.93159 | 37.86380 | 38076 ft | 462 kts | 302° |
| 2026-05-06 12:29 | 39.96760 | 37.79454 | 38070 ft | 461 kts | 302° |
| 2026-05-06 12:29 | 40.00354 | 37.72525 | 38073 ft | 461 kts | 302° |
| 2026-05-06 12:30 | 40.03946 | 37.65587 | 38077 ft | 461 kts | 302° |
| 2026-05-06 12:30 | 40.07533 | 37.58643 | 38079 ft | 461 kts | 302° |
| 2026-05-06 12:31 | 40.11113 | 37.51691 | 38077 ft | 461 kts | 302° |
| 2026-05-06 12:31 | 40.14687 | 37.44729 | 38083 ft | 461 kts | 302° |
| 2026-05-06 12:32 | 40.18256 | 37.37760 | 38084 ft | 461 kts | 302° |
| 2026-05-06 12:32 | 40.21821 | 37.30786 | 38089 ft | 461 kts | 302° |
| 2026-05-06 12:33 | 40.23000 | 37.28476 | 38086 ft | 461 kts | 302° |